Idaho, Ohio
Current Conditions -  °F | °C
As of 7:14 PM on Friday 24 Oct 2014 (Local Time) from KRZT Reporting Station
Clear Clear  
Wind Chill: 52°   Ceiling: Unl
Heat Index: 52°   Visibility: 10mi
Dew Point: 37°   Wind: 0mph
Humidity: 58%   Direction: NA
Pressure: 30.03"   Gusts: NA
Location:  39.0491°N, 83.1454°W
Report Text: KRZT 242314Z AUTO 00000KT 10SM CLR 11/03 A3003 RMK AO2
Loading
Personal Weather Stations






























Interactive Weather Map
Tropical Storm Tracking
New forecast layout! Learn more

10-Day Weather Forecast

Advertisements
Track Severe Weather on mobile